RELACIONES PÚBLICAS

23/03/2017DÍA METEOROLÓGICO MUNDIAL 2017   Cada 23 de marzo la Organización Meteorológica Mundial (OMM) celebra la entrada en vigencia del Convenio mediante el cual fue creado, en 1950. Este día es conocido como el Día Meteorológico Mundial, y en él se celebra y destaca la importancia que los Servicios Meteorológicos e Hidrológicos Nacionales tienen en cada país, puesto que contribuyen al mantenimiento de la seguridad y el bienestar general. A su vez, a cada Día Meteorológico Mundial se le asigna un tema específico. Este año el tema elegido es " Entendiendo las nubes"; con el fin de resaltar la enorme importancia que revisten las nubes para el tiempo, el clima y el agua.https://www.youtube.com/watch?v=BazVcoxsscw&feature=youtu.behttps://public.wmo.int/es/D%C3%ADa-Meteorol%C3%B3gico-Mundial-2017

Productos aeronáuticos

  • SIGMET
  • METAR / SPECI
  • TAF
  • AIREP
  • Aviso de aeródromo
  • Pronárea
  • Carta superficie

Mensajes METAR de la última hora

SUAA 291100Z 09005KT CAVOK 17/16 Q1022
SUCA 291100Z 07010KT 9999 BKN010 17/16 Q1019
SUDU 291100Z 10004KT 8000 FEW010 17/16 Q1021
SULS 291100Z 08007KT 9999 FEW005 19/18 Q1023
SUMU 291100Z 07009KT CAVOK 19/17 Q1022 NOSIG
SUSO 291100Z 14008KT 9999 FEW017 18/16 Q1018

Mensajes METAR de la última hora - Internacionales


Argentina
SAAR 291100Z 05009KT CAVOK 20/18 Q1017
SABE 291100Z 06016KT 9999 SCT008 SCT200 20/18 Q1021
SACO 291100Z 02006KT 7000 SCT015 BKN100 20/19 Q1016
SAEZ 291100Z 11003KT 9999 SCT016 19/18 Q1020
SAME 291100Z 16003KT 9999 OVC015 Q1013
Bolivia
SLCP 291100Z 00000KT 9999 OVC017 22/22 Q1015
SLLP 291100Z 13007KT 4000 -RA VCFG FEW003 SCT010 FEW017CB OVC070 05/04 Q1038
Brasil
SBBR 291100Z 13004KT 9000 BKN005 FEW025TCU 21/19 Q1018
SBFI 291100Z 09006KT CAVOK 22/19 Q1017
SBFL 291100Z 25003KT 9999 VCSH SCT020 BKN050 21/19 Q1020
SBGR 291100Z 04003KT 9999 FEW011 18/16 Q1021
SBPA 291100Z 09009KT 9999 FEW045 SCT070 21/18 Q1021
SBRJ 291100Z 36005KT 9999 SCT020 25/21 Q1016
SBSP 291100Z 13005KT 9999 FEW013 19/14 Q1021
Colombia
SKBO 291100Z VRB02KT 9999 MIFG FEW023 10/09 A3031
SKBO 291030Z VRB02KT 9999 FEW020 10/09 A3029 RMK LTNG/SW
Chile
SCCI 291108Z 26007KT 4000 BR BKN003 OVC007 09/08 Q1015 NOSIG
SCCI 291100Z 25008KT 9999 SCT004 OVC010 09/09 Q1015 NOSIG
SCEL 291100Z 16004KT 8000 SCT150 12/10 Q1016 NOSIG
Ecuador
SEQM 291100Z 01004KT 6000 BCFG SCT003 BKN020 BKN070 14/13 Q1025 BECMG AT1115 4000 BR RMK A3027
EEUU
KMIA 291053Z 00000KT 10SM FEW024 23/18 A3001 RMK AO2 SLP161 T02280178 $
KDCA 291052Z 02010KT 10SM BKN028 OVC034 14/09 A3006 RMK AO2 SLP178 BINOVC T01390089
KIAD 291052Z 02009KT 10SM FEW015 BKN023 BKN041 13/09 A3006 RMK AO2 SLP178 T01280094
KJFK 291051Z 35014KT 10SM FEW015 BKN022 BKN050 08/04 A3002 RMK AO2 SLP167 T00780044
KLGA 291051Z 36010KT 10SM BKN021 08/03 A3002 RMK AO2 SLP166 T00780033
España
LEBL 291100Z VRB02KT 9999 FEW025 18/10 Q1027 NOSIG
LEMD 291100Z 20001KT CAVOK 16/05 Q1028 NOSIG
LEBL 291030Z VRB01KT 9999 FEW025 18/10 Q1027 NOSIG
LEMD 291030Z 15001KT CAVOK 15/05 Q1029 NOSIG
Francia
LFPO 291100Z 21007KT 170V250 9999 FEW046 BKN053 17/08 Q1028 NOSIG
LFPO 291030Z 20007KT 170V230 9999 BKN042 BKN048 16/07 Q1028 NOSIG
Inglaterra
EGLL 291050Z AUTO 23013KT 9999 OVC012 14/11 Q1023 BECMG FEW014 BKN020
EGLL 291020Z AUTO 23013KT 9999 OVC011 13/11 Q1023 BECMG SCT014 BKN018
Panamá
MPTO 291100Z 00000KT(E) 9999 FEW020 ///// Q//// NOSIG
Paraguay
SGAS 291100Z 00000KT CAVOK 22/21 Q1015
Venezuela
SVMI 291100Z 00000KT 9999 SCT016 27/19 Q1011

* Datos extraidos del Text DataServer de la NOAA (NOAA TEXT DATA SERVER)

Instituto Uruguayo de Meteorología

Dr. Javier Barrios Amorín 1488 - CP 11200
1895 int 108

Montevideo - Uruguay